sensor_id;sensor_type;location;lat;lon;timestamp;pressure;altitude;pressure_sealevel;temperature;humidity
41636;BME280;27623;51.966;4.602;2023-03-12T00:00:38;63648.56;;;5.36;69.99
41636;BME280;27623;51.966;4.602;2023-03-12T00:03:03;63643.34;;;5.33;69.88
41636;BME280;27623;51.966;4.602;2023-03-12T00:05:29;63662.28;;;5.37;67.80
41636;BME280;27623;51.966;4.602;2023-03-12T00:07:54;63637.75;;;5.33;68.15
41636;BME280;27623;51.966;4.602;2023-03-12T00:10:24;63610.50;;;5.19;68.83
41636;BME280;27623;51.966;4.602;2023-03-12T00:12:49;63653.78;;;5.45;68.85
41636;BME280;27623;51.966;4.602;2023-03-12T00:15:15;63646.38;;;5.48;68.17
41636;BME280;27623;51.966;4.602;2023-03-12T00:17:40;63679.06;;;5.60;67.81
41636;BME280;27623;51.966;4.602;2023-03-12T00:20:06;63685.00;;;5.51;67.77
41636;BME280;27623;51.966;4.602;2023-03-12T00:22:32;63651.25;;;5.60;67.59
41636;BME280;27623;51.966;4.602;2023-03-12T00:24:58;63678.31;;;5.71;68.20
41636;BME280;27623;51.966;4.602;2023-03-12T00:27:24;63697.66;;;5.79;67.25
41636;BME280;27623;51.966;4.602;2023-03-12T00:29:50;63700.69;;;5.87;67.31
41636;BME280;27623;51.966;4.602;2023-03-12T00:32:16;63679.59;;;5.74;68.08
41636;BME280;27623;51.966;4.602;2023-03-12T00:34:41;63716.06;;;5.82;67.52
41636;BME280;27623;51.966;4.602;2023-03-12T00:37:07;63656.13;;;5.71;68.29
41636;BME280;27623;51.966;4.602;2023-03-12T00:39:33;63644.41;;;5.56;68.27
41636;BME280;27623;51.966;4.602;2023-03-12T00:41:59;63632.31;;;5.56;67.63
41636;BME280;27623;51.966;4.602;2023-03-12T00:44:25;63713.16;;;5.63;68.56
41636;BME280;27623;51.966;4.602;2023-03-12T00:46:50;63690.25;;;5.46;67.70
41636;BME280;27623;51.966;4.602;2023-03-12T00:49:16;63640.44;;;5.42;68.04
41636;BME280;27623;51.966;4.602;2023-03-12T00:51:43;63671.66;;;5.48;68.31
41636;BME280;27623;51.966;4.602;2023-03-12T00:54:09;63666.06;;;5.40;68.69
41636;BME280;27623;51.966;4.602;2023-03-12T00:56:34;63657.03;;;5.63;68.26
41636;BME280;27623;51.966;4.602;2023-03-12T00:59:00;63689.16;;;5.45;67.97
41636;BME280;27623;51.966;4.602;2023-03-12T01:01:25;63644.41;;;5.48;68.98
41636;BME280;27623;51.966;4.602;2023-03-12T01:03:52;63638.81;;;5.55;67.72
41636;BME280;27623;51.966;4.602;2023-03-12T01:06:17;63659.56;;;5.41;66.78
41636;BME280;27623;51.966;4.602;2023-03-12T01:08:43;63681.56;;;5.67;67.31
41636;BME280;27623;51.966;4.602;2023-03-12T01:11:18;63697.81;;;5.75;66.50
41636;BME280;27623;51.966;4.602;2023-03-12T01:13:44;63661.19;;;5.64;65.78
41636;BME280;27623;51.966;4.602;2023-03-12T01:16:10;63702.88;;;5.75;66.80
41636;BME280;27623;51.966;4.602;2023-03-12T01:18:35;63678.50;;;5.80;66.53
41636;BME280;27623;51.966;4.602;2023-03-12T01:21:03;63682.50;;;5.58;65.79
41636;BME280;27623;51.966;4.602;2023-03-12T01:23:29;63682.47;;;5.51;65.63
41636;BME280;27623;51.966;4.602;2023-03-12T01:25:55;63666.41;;;5.67;66.25
41636;BME280;27623;51.966;4.602;2023-03-12T01:28:24;63698.91;;;5.69;66.38
41636;BME280;27623;51.966;4.602;2023-03-12T01:30:52;63648.53;;;5.71;65.37
41636;BME280;27623;51.966;4.602;2023-03-12T01:33:17;63647.47;;;5.56;65.67
41636;BME280;27623;51.966;4.602;2023-03-12T01:35:43;63659.38;;;5.60;65.59
41636;BME280;27623;51.966;4.602;2023-03-12T01:38:14;63685.75;;;5.54;66.86
41636;BME280;27623;51.966;4.602;2023-03-12T01:40:41;63681.03;;;5.38;67.62
41636;BME280;27623;51.966;4.602;2023-03-12T01:43:27;63646.22;;;5.45;67.71
41636;BME280;27623;51.966;4.602;2023-03-12T01:48:38;63660.66;;;5.57;67.25
41636;BME280;27623;51.966;4.602;2023-03-12T01:51:04;63649.47;;;5.48;66.95
41636;BME280;27623;51.966;4.602;2023-03-12T01:53:30;63663.34;;;5.52;68.22
41636;BME280;27623;51.966;4.602;2023-03-12T01:55:57;63612.13;;;5.35;67.71
41636;BME280;27623;51.966;4.602;2023-03-12T01:58:25;63670.19;;;5.42;68.31
41636;BME280;27623;51.966;4.602;2023-03-12T02:00:51;63668.56;;;5.40;68.50
41636;BME280;27623;51.966;4.602;2023-03-12T02:03:16;63665.88;;;5.52;68.15
41636;BME280;27623;51.966;4.602;2023-03-12T02:08:10;63672.56;;;5.46;68.88
41636;BME280;27623;51.966;4.602;2023-03-12T02:10:36;63665.34;;;5.51;69.62
41636;BME280;27623;51.966;4.602;2023-03-12T02:13:01;63663.34;;;5.31;68.82
41636;BME280;27623;51.966;4.602;2023-03-12T02:15:27;63638.66;;;5.38;67.40
41636;BME280;27623;51.966;4.602;2023-03-12T02:17:52;63634.84;;;5.35;67.04
41636;BME280;27623;51.966;4.602;2023-03-12T02:20:27;63645.13;;;5.30;65.62
41636;BME280;27623;51.966;4.602;2023-03-12T02:23:04;63627.44;;;5.30;67.43
41636;BME280;27623;51.966;4.602;2023-03-12T02:25:49;63669.84;;;5.30;66.53
41636;BME280;27623;51.966;4.602;2023-03-12T02:28:16;63648.19;;;5.24;67.11
41636;BME280;27623;51.966;4.602;2023-03-12T02:30:46;63667.13;;;5.13;67.19
41636;BME280;27623;51.966;4.602;2023-03-12T02:33:12;63630.88;;;5.14;66.57
41636;BME280;27623;51.966;4.602;2023-03-12T02:35:39;63638.81;;;5.20;68.56
41636;BME280;27623;51.966;4.602;2023-03-12T02:38:46;63663.53;;;5.26;68.44
41636;BME280;27623;51.966;4.602;2023-03-12T02:43:36;63649.81;;;5.32;69.97
41636;BME280;27623;51.966;4.602;2023-03-12T02:46:03;63658.31;;;5.38;69.54
41636;BME280;27623;51.966;4.602;2023-03-12T02:48:28;63630.16;;;5.33;70.98
41636;BME280;27623;51.966;4.602;2023-03-12T02:50:54;63662.47;;;5.39;72.52
41636;BME280;27623;51.966;4.602;2023-03-12T02:53:19;63651.25;;;5.45;72.34
41636;BME280;27623;51.966;4.602;2023-03-12T02:55:44;63635.56;;;5.31;72.41
41636;BME280;27623;51.966;4.602;2023-03-12T02:58:10;63628.16;;;5.26;74.42
41636;BME280;27623;51.966;4.602;2023-03-12T03:00:35;63648.19;;;5.16;75.09
41636;BME280;27623;51.966;4.602;2023-03-12T03:03:02;63666.22;;;5.22;75.35
41636;BME280;27623;51.966;4.602;2023-03-12T03:05:27;63654.69;;;5.30;74.77
41636;BME280;27623;51.966;4.602;2023-03-12T03:07:52;63640.09;;;5.30;76.03
41636;BME280;27623;51.966;4.602;2023-03-12T03:10:18;63612.47;;;5.04;75.96
41636;BME280;27623;51.966;4.602;2023-03-12T03:12:44;63666.25;;;5.36;76.67
41636;BME280;27623;51.966;4.602;2023-03-12T03:15:12;63638.63;;;5.10;75.87
41636;BME280;27623;51.966;4.602;2023-03-12T03:17:37;63626.72;;;5.06;76.63
41636;BME280;27623;51.966;4.602;2023-03-12T03:20:04;63596.25;;;5.03;76.99
41636;BME280;27623;51.966;4.602;2023-03-12T03:22:37;63580.38;;;4.79;78.03
41636;BME280;27623;51.966;4.602;2023-03-12T03:25:04;63621.66;;;4.84;79.12
41636;BME280;27623;51.966;4.602;2023-03-12T03:27:30;63612.66;;;4.86;80.01
41636;BME280;27623;51.966;4.602;2023-03-12T03:29:56;63608.69;;;4.87;80.94
41636;BME280;27623;51.966;4.602;2023-03-12T03:32:21;63620.25;;;4.93;81.86
41636;BME280;27623;51.966;4.602;2023-03-12T03:34:46;63594.63;;;4.95;82.38
41636;BME280;27623;51.966;4.602;2023-03-12T03:37:12;63600.94;;;4.98;83.02
41636;BME280;27623;51.966;4.602;2023-03-12T03:39:37;63600.41;;;4.91;83.08
41636;BME280;27623;51.966;4.602;2023-03-12T03:42:03;63608.69;;;4.94;83.46
41636;BME280;27623;51.966;4.602;2023-03-12T03:44:28;63619.88;;;4.88;83.70
41636;BME280;27623;51.966;4.602;2023-03-12T03:46:54;63617.34;;;4.73;84.11
41636;BME280;27623;51.966;4.602;2023-03-12T03:49:22;63555.16;;;4.65;83.82
41636;BME280;27623;51.966;4.602;2023-03-12T03:51:47;63590.66;;;4.74;84.52
41636;BME280;27623;51.966;4.602;2023-03-12T03:54:14;63594.81;;;4.83;83.50
41636;BME280;27623;51.966;4.602;2023-03-12T03:56:40;63603.47;;;4.77;81.99
41636;BME280;27623;51.966;4.602;2023-03-12T03:59:06;63585.78;;;4.70;83.22
41636;BME280;27623;51.966;4.602;2023-03-12T04:01:31;63560.94;;;4.75;82.67
41636;BME280;27623;51.966;4.602;2023-03-12T04:03:58;63552.47;;;4.76;83.75
41636;BME280;27623;51.966;4.602;2023-03-12T04:06:23;63599.31;;;4.82;82.76
41636;BME280;27623;51.966;4.602;2023-03-12T04:08:49;63576.06;;;4.68;83.01
41636;BME280;27623;51.966;4.602;2023-03-12T04:11:17;63592.63;;;4.60;82.87
41636;BME280;27623;51.966;4.602;2023-03-12T04:13:43;63583.25;;;4.63;83.32
41636;BME280;27623;51.966;4.602;2023-03-12T04:16:10;63577.69;;;4.83;82.77
41636;BME280;27623;51.966;4.602;2023-03-12T04:18:36;63582.38;;;4.71;83.42
41636;BME280;27623;51.966;4.602;2023-03-12T04:21:05;63611.94;;;4.82;84.73
41636;BME280;27623;51.966;4.602;2023-03-12T04:23:33;63557.47;;;4.41;87.08
41636;BME280;27623;51.966;4.602;2023-03-12T04:25:59;63536.22;;;4.47;89.47
41636;BME280;27623;51.966;4.602;2023-03-12T04:28:25;63589.03;;;4.52;92.23
41636;BME280;27623;51.966;4.602;2023-03-12T04:30:58;63550.44;;;4.13;95.46
41636;BME280;27623;51.966;4.602;2023-03-12T04:33:28;63539.47;;;4.14;98.12
41636;BME280;27623;51.966;4.602;2023-03-12T04:35:54;63504.69;;;4.22;98.99
41636;BME280;27623;51.966;4.602;2023-03-12T04:38:24;63515.69;;;4.21;100.00
41636;BME280;27623;51.966;4.602;2023-03-12T04:40:59;63504.72;;;4.29;100.00
41636;BME280;27623;51.966;4.602;2023-03-12T04:43:26;63535.16;;;4.25;100.00
41636;BME280;27623;51.966;4.602;2023-03-12T04:45:51;63506.88;;;4.24;100.00
41636;BME280;27623;51.966;4.602;2023-03-12T04:48:17;63536.75;;;4.19;100.00
41636;BME280;27623;51.966;4.602;2023-03-12T04:50:42;63504.69;;;4.22;100.00
41636;BME280;27623;51.966;4.602;2023-03-12T04:53:09;63491.75;;;4.10;100.00
41636;BME280;27623;51.966;4.602;2023-03-12T04:55:34;63492.81;;;3.97;100.00
41636;BME280;27623;51.966;4.602;2023-03-12T04:58:02;63489.38;;;3.98;100.00
41636;BME280;27623;51.966;4.602;2023-03-12T05:00:27;63473.91;;;4.00;100.00
41636;BME280;27623;51.966;4.602;2023-03-12T05:02:53;63522.88;;;4.23;100.00
41636;BME280;27623;51.966;4.602;2023-03-12T05:05:19;63549.72;;;4.38;100.00
41636;BME280;27623;51.966;4.602;2023-03-12T05:07:45;63500.22;;;4.16;100.00
41636;BME280;27623;51.966;4.602;2023-03-12T05:10:10;63514.97;;;4.10;100.00
41636;BME280;27623;51.966;4.602;2023-03-12T05:12:35;63550.78;;;4.18;100.00
41636;BME280;27623;51.966;4.602;2023-03-12T05:15:01;63518.91;;;4.17;100.00
41636;BME280;27623;51.966;4.602;2023-03-12T05:17:26;63556.03;;;4.28;100.00
41636;BME280;27623;51.966;4.602;2023-03-12T05:19:52;63508.84;;;4.09;100.00
41636;BME280;27623;51.966;4.602;2023-03-12T05:22:17;63526.47;;;4.02;100.00
41636;BME280;27623;51.966;4.602;2023-03-12T05:24:43;63520.91;;;4.09;100.00
41636;BME280;27623;51.966;4.602;2023-03-12T05:27:08;63504.53;;;4.20;100.00
41636;BME280;27623;51.966;4.602;2023-03-12T05:29:34;63510.09;;;3.99;100.00
41636;BME280;27623;51.966;4.602;2023-03-12T05:32:02;63509.56;;;4.05;100.00
41636;BME280;27623;51.966;4.602;2023-03-12T05:34:29;63542.19;;;4.31;100.00
41636;BME280;27623;51.966;4.602;2023-03-12T05:36:56;63536.75;;;4.19;100.00
41636;BME280;27623;51.966;4.602;2023-03-12T05:39:23;63547.72;;;4.03;100.00
41636;BME280;27623;51.966;4.602;2023-03-12T05:41:48;63542.88;;;4.13;100.00
41636;BME280;27623;51.966;4.602;2023-03-12T05:44:21;63534.41;;;4.07;100.00
41636;BME280;27623;51.966;4.602;2023-03-12T05:46:46;63507.94;;;4.25;100.00
41636;BME280;27623;51.966;4.602;2023-03-12T05:49:11;63491.72;;;3.82;100.00
41636;BME280;27623;51.966;4.602;2023-03-12T05:51:37;63513.88;;;4.02;100.00
41636;BME280;27623;51.966;4.602;2023-03-12T05:54:02;63518.56;;;4.04;100.00
41636;BME280;27623;51.966;4.602;2023-03-12T05:56:28;63507.41;;;4.18;100.00
41636;BME280;27623;51.966;4.602;2023-03-12T05:58:53;63513.16;;;4.13;100.00
41636;BME280;27623;51.966;4.602;2023-03-12T06:01:21;63513.34;;;4.30;100.00
41636;BME280;27623;51.966;4.602;2023-03-12T06:03:47;63519.66;;;4.20;100.00
41636;BME280;27623;51.966;4.602;2023-03-12T06:06:13;63479.66;;;4.03;100.00
41636;BME280;27623;51.966;4.602;2023-03-12T06:08:40;63532.06;;;4.03;100.00
41636;BME280;27623;51.966;4.602;2023-03-12T06:11:05;63520.72;;;3.99;100.00
41636;BME280;27623;51.966;4.602;2023-03-12T06:13:31;63489.03;;;3.86;100.00
41636;BME280;27623;51.966;4.602;2023-03-12T06:16:08;63512.63;;;4.06;100.00
41636;BME280;27623;51.966;4.602;2023-03-12T06:18:35;63437.53;;;3.57;100.00
41636;BME280;27623;51.966;4.602;2023-03-12T06:21:21;63481.47;;;3.86;100.00
41636;BME280;27623;51.966;4.602;2023-03-12T06:23:50;63494.06;;;3.93;100.00
41636;BME280;27623;51.966;4.602;2023-03-12T06:26:17;63535.47;;;4.01;100.00
41636;BME280;27623;51.966;4.602;2023-03-12T06:28:45;63510.28;;;4.08;100.00
41636;BME280;27623;51.966;4.602;2023-03-12T06:31:11;63523.06;;;4.04;100.00
41636;BME280;27623;51.966;4.602;2023-03-12T06:33:36;63512.25;;;4.01;100.00
41636;BME280;27623;51.966;4.602;2023-03-12T06:36:04;63532.44;;;4.22;100.00
41636;BME280;27623;51.966;4.602;2023-03-12T06:38:30;63559.09;;;4.42;100.00
41636;BME280;27623;51.966;4.602;2023-03-12T06:41:03;63501.63;;;4.07;100.00
41636;BME280;27623;51.966;4.602;2023-03-12T06:43:31;63513.88;;;4.09;100.00
41636;BME280;27623;51.966;4.602;2023-03-12T06:46:00;63508.66;;;4.07;100.00
41636;BME280;27623;51.966;4.602;2023-03-12T06:48:27;63478.41;;;3.93;100.00
41636;BME280;27623;51.966;4.602;2023-03-12T06:50:53;63495.88;;;3.90;100.00
41636;BME280;27623;51.966;4.602;2023-03-12T06:53:21;63485.41;;;3.85;100.00
41636;BME280;27623;51.966;4.602;2023-03-12T06:55:49;63512.44;;;4.10;100.00
41636;BME280;27623;51.966;4.602;2023-03-12T06:58:15;63540.38;;;4.27;100.00
41636;BME280;27623;51.966;4.602;2023-03-12T07:00:40;63526.13;;;4.19;100.00
41636;BME280;27623;51.966;4.602;2023-03-12T07:03:06;63501.81;;;4.17;100.00
41636;BME280;27623;51.966;4.602;2023-03-12T07:05:31;63520.00;;;4.18;100.00
41636;BME280;27623;51.966;4.602;2023-03-12T07:07:57;63527.19;;;3.98;100.00
41636;BME280;27623;51.966;4.602;2023-03-12T07:10:22;63529.53;;;4.03;100.00
41636;BME280;27623;51.966;4.602;2023-03-12T07:12:48;63533.69;;;4.11;100.00
41636;BME280;27623;51.966;4.602;2023-03-12T07:15:13;63528.47;;;4.16;100.00
41636;BME280;27623;51.966;4.602;2023-03-12T07:17:39;63543.22;;;4.18;100.00
41636;BME280;27623;51.966;4.602;2023-03-12T07:20:05;63551.16;;;4.16;100.00
41636;BME280;27623;51.966;4.602;2023-03-12T07:22:31;63519.81;;;4.01;100.00
41636;BME280;27623;51.966;4.602;2023-03-12T07:24:56;63560.34;;;4.10;100.00
41636;BME280;27623;51.966;4.602;2023-03-12T07:27:22;63529.91;;;4.08;100.00
41636;BME280;27623;51.966;4.602;2023-03-12T07:29:47;63527.94;;;4.16;100.00
41636;BME280;27623;51.966;4.602;2023-03-12T07:32:13;63548.81;;;4.19;100.00
41636;BME280;27623;51.966;4.602;2023-03-12T07:34:39;63545.22;;;4.25;100.00
41636;BME280;27623;51.966;4.602;2023-03-12T07:37:04;63554.78;;;4.24;100.00
41636;BME280;27623;51.966;4.602;2023-03-12T07:39:30;63552.78;;;4.18;100.00
41636;BME280;27623;51.966;4.602;2023-03-12T07:41:55;63537.69;;;4.32;100.00
41636;BME280;27623;51.966;4.602;2023-03-12T07:44:21;63581.44;;;4.44;100.00
41636;BME280;27623;51.966;4.602;2023-03-12T07:46:47;63596.22;;;4.61;100.00
41636;BME280;27623;51.966;4.602;2023-03-12T07:49:14;63595.50;;;4.58;100.00
41636;BME280;27623;51.966;4.602;2023-03-12T07:51:40;63589.03;;;4.59;100.00
41636;BME280;27623;51.966;4.602;2023-03-12T07:54:08;63594.28;;;4.75;100.00
41636;BME280;27623;51.966;4.602;2023-03-12T07:56:36;63598.06;;;4.86;100.00
41636;BME280;27623;51.966;4.602;2023-03-12T07:59:01;63587.94;;;4.79;100.00
41636;BME280;27623;51.966;4.602;2023-03-12T08:01:27;63637.38;;;4.78;100.00
41636;BME280;27623;51.966;4.602;2023-03-12T08:03:57;63570.13;;;4.91;100.00
41636;BME280;27623;51.966;4.602;2023-03-12T08:06:23;63632.69;;;5.04;100.00
41636;BME280;27623;51.966;4.602;2023-03-12T08:08:49;63648.56;;;5.14;100.00
41636;BME280;27623;51.966;4.602;2023-03-12T08:11:14;63657.56;;;5.21;100.00
41636;BME280;27623;51.966;4.602;2023-03-12T08:13:40;63653.59;;;5.22;100.00
41636;BME280;27623;51.966;4.602;2023-03-12T08:16:05;63658.66;;;5.29;100.00
41636;BME280;27623;51.966;4.602;2023-03-12T08:18:31;63668.22;;;5.35;100.00
41636;BME280;27623;51.966;4.602;2023-03-12T08:20:56;63651.44;;;5.34;100.00
41636;BME280;27623;51.966;4.602;2023-03-12T08:23:22;63667.69;;;5.35;100.00
41636;BME280;27623;51.966;4.602;2023-03-12T08:25:48;63681.94;;;5.29;100.00
41636;BME280;27623;51.966;4.602;2023-03-12T08:28:17;63657.94;;;5.47;100.00
41636;BME280;27623;51.966;4.602;2023-03-12T08:30:47;63704.31;;;5.45;100.00
41636;BME280;27623;51.966;4.602;2023-03-12T08:33:13;63674.91;;;5.58;100.00
41636;BME280;27623;51.966;4.602;2023-03-12T08:35:38;63707.22;;;5.79;100.00
41636;BME280;27623;51.966;4.602;2023-03-12T08:38:04;63701.44;;;5.76;100.00
41636;BME280;27623;51.966;4.602;2023-03-12T08:40:30;63741.00;;;5.99;100.00
41636;BME280;27623;51.966;4.602;2023-03-12T08:42:55;63724.56;;;6.02;100.00
41636;BME280;27623;51.966;4.602;2023-03-12T08:45:20;63767.38;;;6.21;100.00
41636;BME280;27623;51.966;4.602;2023-03-12T08:47:48;63744.94;;;6.26;100.00
41636;BME280;27623;51.966;4.602;2023-03-12T08:50:14;63748.94;;;6.18;100.00
41636;BME280;27623;51.966;4.602;2023-03-12T08:52:54;63788.13;;;6.29;100.00
41636;BME280;27623;51.966;4.602;2023-03-12T08:55:20;63790.69;;;6.36;100.00
41636;BME280;27623;51.966;4.602;2023-03-12T08:57:45;63812.00;;;6.37;100.00
41636;BME280;27623;51.966;4.602;2023-03-12T09:00:14;63801.34;;;6.50;100.00
41636;BME280;27623;51.966;4.602;2023-03-12T09:02:43;63829.91;;;6.53;100.00
41636;BME280;27623;51.966;4.602;2023-03-12T09:05:09;63798.25;;;6.57;100.00
41636;BME280;27623;51.966;4.602;2023-03-12T09:07:34;63821.41;;;6.62;100.00
41636;BME280;27623;51.966;4.602;2023-03-12T09:09:59;63817.78;;;6.68;100.00
41636;BME280;27623;51.966;4.602;2023-03-12T09:12:25;63851.78;;;6.76;100.00
41636;BME280;27623;51.966;4.602;2023-03-12T09:14:51;63839.47;;;6.74;100.00
41636;BME280;27623;51.966;4.602;2023-03-12T09:17:17;63824.28;;;6.81;100.00
41636;BME280;27623;51.966;4.602;2023-03-12T09:19:42;63884.88;;;6.93;100.00
41636;BME280;27623;51.966;4.602;2023-03-12T09:22:08;63880.53;;;6.96;100.00
41636;BME280;27623;51.966;4.602;2023-03-12T09:24:36;63859.19;;;7.02;100.00
41636;BME280;27623;51.966;4.602;2023-03-12T09:27:01;63901.69;;;7.16;100.00
41636;BME280;27623;51.966;4.602;2023-03-12T09:29:28;63902.75;;;7.31;100.00
41636;BME280;27623;51.966;4.602;2023-03-12T09:31:54;63907.13;;;7.21;100.00
41636;BME280;27623;51.966;4.602;2023-03-12T09:34:19;63874.69;;;7.29;100.00
41636;BME280;27623;51.966;4.602;2023-03-12T09:36:45;63935.72;;;7.38;100.00
41636;BME280;27623;51.966;4.602;2023-03-12T09:39:10;63912.53;;;7.47;100.00
41636;BME280;27623;51.966;4.602;2023-03-12T09:41:38;63929.72;;;7.61;100.00
41636;BME280;27623;51.966;4.602;2023-03-12T09:44:39;63911.97;;;7.68;100.00
41636;BME280;27623;51.966;4.602;2023-03-12T09:47:15;63944.00;;;7.70;100.00
41636;BME280;27623;51.966;4.602;2023-03-12T09:49:48;63970.25;;;7.82;100.00
41636;BME280;27623;51.966;4.602;2023-03-12T09:52:39;63977.34;;;7.89;100.00
41636;BME280;27623;51.966;4.602;2023-03-12T09:55:11;63989.09;;;7.90;100.00
41636;BME280;27623;51.966;4.602;2023-03-12T09:57:42;63970.78;;;7.97;100.00
41636;BME280;27623;51.966;4.602;2023-03-12T10:00:34;63988.53;;;8.11;100.00
41636;BME280;27623;51.966;4.602;2023-03-12T10:06:19;64009.53;;;8.21;100.00
41636;BME280;27623;51.966;4.602;2023-03-12T10:17:04;64045.25;;;8.45;100.00
41636;BME280;27623;51.966;4.602;2023-03-12T10:19:55;63998.09;;;8.46;100.00
41636;BME280;27623;51.966;4.602;2023-03-12T10:27:37;64017.47;;;8.55;100.00
41636;BME280;27623;51.966;4.602;2023-03-12T10:30:13;64029.09;;;8.61;100.00
41636;BME280;27623;51.966;4.602;2023-03-12T10:32:49;64051.03;;;8.63;100.00
41636;BME280;27623;51.966;4.602;2023-03-12T10:35:21;64070.25;;;8.69;100.00
41636;BME280;27623;51.966;4.602;2023-03-12T10:37:51;64052.84;;;8.67;100.00
41636;BME280;27623;51.966;4.602;2023-03-12T10:40:21;64049.22;;;8.66;100.00
41636;BME280;27623;51.966;4.602;2023-03-12T10:42:47;64028.38;;;8.58;100.00
41636;BME280;27623;51.966;4.602;2023-03-12T10:45:24;64068.63;;;8.67;100.00
41636;BME280;27623;51.966;4.602;2023-03-12T10:47:56;64055.91;;;8.74;100.00
41636;BME280;27623;51.966;4.602;2023-03-12T10:50:26;64054.63;;;8.78;100.00
41636;BME280;27623;51.966;4.602;2023-03-12T10:53:31;64088.00;;;8.90;100.00
41636;BME280;27623;51.966;4.602;2023-03-12T11:01:04;64112.31;;;8.96;100.00
41636;BME280;27623;51.966;4.602;2023-03-12T11:03:31;64116.84;;;8.95;100.00
41636;BME280;27623;51.966;4.602;2023-03-12T11:05:59;64122.84;;;9.01;100.00
41636;BME280;27623;51.966;4.602;2023-03-12T11:08:29;64076.53;;;9.01;100.00
41636;BME280;27623;51.966;4.602;2023-03-12T11:10:57;64093.25;;;9.00;100.00
41636;BME280;27623;51.966;4.602;2023-03-12T11:15:49;64106.09;;;9.16;100.00
41636;BME280;27623;51.966;4.602;2023-03-12T11:20:52;64132.41;;;9.29;100.00
41636;BME280;27623;51.966;4.602;2023-03-12T11:23:29;64140.59;;;9.29;100.00
41636;BME280;27623;51.966;4.602;2023-03-12T11:26:19;64131.31;;;9.28;100.00
41636;BME280;27623;51.966;4.602;2023-03-12T11:29:05;64140.22;;;9.24;100.00
41636;BME280;27623;51.966;4.602;2023-03-12T11:31:41;64163.25;;;9.41;100.00
41636;BME280;27623;51.966;4.602;2023-03-12T11:34:20;64142.72;;;9.39;100.00
41636;BME280;27623;51.966;4.602;2023-03-12T11:40:32;64148.47;;;9.70;100.00
41636;BME280;27623;51.966;4.602;2023-03-12T11:43:36;64168.06;;;9.81;100.00
41636;BME280;27623;51.966;4.602;2023-03-12T11:51:57;64222.75;;;9.99;100.00
41636;BME280;27623;51.966;4.602;2023-03-12T11:57:29;64214.72;;;10.15;100.00
41636;BME280;27623;51.966;4.602;2023-03-12T12:00:09;64250.91;;;10.23;100.00
41636;BME280;27623;51.966;4.602;2023-03-12T12:02:44;64264.72;;;10.24;100.00
41636;BME280;27623;51.966;4.602;2023-03-12T12:05:30;64260.72;;;10.32;100.00
41636;BME280;27623;51.966;4.602;2023-03-12T12:08:08;64265.94;;;10.42;100.00
41636;BME280;27623;51.966;4.602;2023-03-12T12:24:12;64293.97;;;10.49;100.00
41636;BME280;27623;51.966;4.602;2023-03-12T12:26:59;64261.56;;;10.45;100.00
41636;BME280;27623;51.966;4.602;2023-03-12T12:32:34;64303.59;;;10.55;100.00
41636;BME280;27623;51.966;4.602;2023-03-12T12:35:13;64301.38;;;10.60;100.00
41636;BME280;27623;51.966;4.602;2023-03-12T12:38:08;64302.47;;;10.68;100.00
41636;BME280;27623;51.966;4.602;2023-03-12T12:43:24;64283.88;;;10.73;100.00
41636;BME280;27623;51.966;4.602;2023-03-12T12:45:54;64286.25;;;10.77;100.00
41636;BME280;27623;51.966;4.602;2023-03-12T12:48:34;64310.06;;;10.83;100.00
41636;BME280;27623;51.966;4.602;2023-03-12T12:51:05;64370.50;;;11.01;100.00
41636;BME280;27623;51.966;4.602;2023-03-12T13:01:56;64325.16;;;10.87;98.94
41636;BME280;27623;51.966;4.602;2023-03-12T13:04:26;64324.97;;;10.99;99.69
41636;BME280;27623;51.966;4.602;2023-03-12T13:09:43;64304.22;;;10.94;95.87
41636;BME280;27623;51.966;4.602;2023-03-12T13:14:40;64353.72;;;11.02;95.79
41636;BME280;27623;51.966;4.602;2023-03-12T13:17:32;64374.44;;;11.14;95.07
41636;BME280;27623;51.966;4.602;2023-03-12T13:20:13;64337.47;;;11.18;93.71
41636;BME280;27623;51.966;4.602;2023-03-12T13:22:48;64417.34;;;11.52;92.38
41636;BME280;27623;51.966;4.602;2023-03-12T13:27:57;64346.69;;;11.33;91.27
41636;BME280;27623;51.966;4.602;2023-03-12T13:43:14;64456.72;;;12.12;87.08
41636;BME280;27623;51.966;4.602;2023-03-12T13:48:17;64537.97;;;12.57;82.84
41636;BME280;27623;51.966;4.602;2023-03-12T13:50:54;64553.59;;;12.83;82.68
41636;BME280;27623;51.966;4.602;2023-03-12T13:53:32;64552.97;;;12.97;81.12
41636;BME280;27623;51.966;4.602;2023-03-12T13:56:15;64543.00;;;12.78;81.39
41636;BME280;27623;51.966;4.602;2023-03-12T13:58:53;64555.34;;;12.94;81.49
41636;BME280;27623;51.966;4.602;2023-03-12T14:01:22;64553.31;;;13.02;82.03
41636;BME280;27623;51.966;4.602;2023-03-12T14:03:53;64542.44;;;12.85;82.40
41636;BME280;27623;51.966;4.602;2023-03-12T14:06:23;64546.78;;;12.89;85.50
41636;BME280;27623;51.966;4.602;2023-03-12T14:12:05;64493.13;;;12.44;86.98
41636;BME280;27623;51.966;4.602;2023-03-12T14:16:53;64482.13;;;12.55;87.85
41636;BME280;27623;51.966;4.602;2023-03-12T14:19:32;64522.63;;;12.64;87.10
41636;BME280;27623;51.966;4.602;2023-03-12T14:22:04;64528.47;;;12.60;86.07
41636;BME280;27623;51.966;4.602;2023-03-12T14:24:38;64549.19;;;12.86;85.33
41636;BME280;27623;51.966;4.602;2023-03-12T14:27:10;64578.34;;;13.01;84.29
41636;BME280;27623;51.966;4.602;2023-03-12T14:29:51;64563.63;;;12.88;84.29
41636;BME280;27623;51.966;4.602;2023-03-12T14:32:22;64471.59;;;12.43;85.54
41636;BME280;27623;51.966;4.602;2023-03-12T14:34:56;64514.31;;;12.32;85.76
41636;BME280;27623;51.966;4.602;2023-03-12T14:37:31;64460.53;;;12.23;87.35
41636;BME280;27623;51.966;4.602;2023-03-12T14:40:01;64415.44;;;11.83;86.94
41636;BME280;27623;51.966;4.602;2023-03-12T14:42:32;64394.84;;;11.81;87.87
41636;BME280;27623;51.966;4.602;2023-03-12T14:45:09;64412.34;;;11.83;88.10
41636;BME280;27623;51.966;4.602;2023-03-12T14:47:55;64428.91;;;11.86;88.33
41636;BME280;27623;51.966;4.602;2023-03-12T14:50:22;64425.22;;;11.99;88.05
41636;BME280;27623;51.966;4.602;2023-03-12T14:52:48;64413.09;;;11.79;87.38
41636;BME280;27623;51.966;4.602;2023-03-12T14:55:18;64432.06;;;11.80;86.91